Time;durP1;ratioP1;P1;durP2;ratioP2;P2;SDS_P1;SDS_P2;PMS_P1;PMS_P2;Temp;Humidity;BMP_temperature;BMP_pressure;BME280_temperature;BME280_humidity;BME280_pressure;Samples;Min_cycle;Max_cycle;Signal;HPM_P1;HPM_P2
2023/04/30 00:00:00;;;;;;;;;;;;;;;4.96;54.23;100858.59;10663152;27;19930;-72
2023/04/30 00:05:02;;;;;;;;;;;;;;;5.10;53.59;100846.38;10651927;27;19930;-72
2023/04/30 00:10:04;;;;;;;;;;;;;;;5.11;53.35;100834.44;10683234;27;19923;-72
2023/04/30 00:15:07;;;;;;;;;;;;;;;5.17;52.89;100834.53;10681415;27;19923;-72
2023/04/30 00:20:09;;;;;;;;;;;;;;;5.25;53.54;100821.41;10698129;27;20416;-72
2023/04/30 00:25:11;;;;;;;;;;;;;;;5.39;52.85;100814.59;10661306;27;19930;-72
2023/04/30 00:30:13;;;;;;;;;;;;;;;5.45;52.91;100799.19;10676147;27;19923;-72
2023/04/30 00:35:16;;;;;;;;;;;;;;;5.37;52.94;100789.50;10667052;27;19930;-72
2023/04/30 00:40:19;;;;;;;;;;;;;;;5.36;53.11;100785.13;10678522;27;20407;-72
2023/04/30 00:45:21;;;;;;;;;;;;;;;5.34;52.41;100776.38;10706713;27;19923;-72
2023/04/30 00:50:23;;;;;;;;;;;;;;;5.35;52.89;100769.06;10719416;27;19924;-72
2023/04/30 00:55:25;;;;;;;;;;;;;;;5.43;52.63;100755.91;10667376;27;19929;-72
2023/04/30 01:00:27;;;;;;;;;;;;;;;5.44;52.19;100754.00;10681057;27;20427;-72
2023/04/30 01:05:29;;;;;;;;;;;;;;;5.41;52.17;100721.84;10651291;27;19923;-72
2023/04/30 01:10:39;;;;;;;;;;;;;;;5.41;51.91;100730.00;10635071;27;20291;-72
2023/04/30 01:15:41;;;;;;;;;;;;;;;5.44;52.61;100714.00;10660468;27;19945;-72
2023/04/30 01:20:43;;;;;;;;;;;;;;;5.47;51.82;100700.97;10734536;27;19948;-72
2023/04/30 01:25:52;;;;;;;;;;;;;;;5.44;52.55;100696.84;10630139;27;19923;-73
2023/04/30 01:30:54;;;;;;;;;;;;;;;5.50;52.62;100690.41;10665010;27;19923;-72
2023/04/30 01:35:56;;;;;;;;;;;;;;;5.53;52.35;100676.31;10651459;27;19922;-72
2023/04/30 01:41:05;;;;;;;;;;;;;;;5.67;51.77;100664.03;10661810;27;19924;-72
2023/04/30 01:46:06;;;;;;;;;;;;;;;5.81;51.74;100653.63;10695572;27;19923;-72
2023/04/30 01:51:35;;;;;;;;;;;;;;;5.90;51.41;100648.59;10666672;27;19922;-73
2023/04/30 01:56:40;;;;;;;;;;;;;;;6.02;51.12;100630.25;10698202;27;19923;-73
2023/04/30 02:01:42;;;;;;;;;;;;;;;6.27;50.39;100636.06;10672939;27;19931;-71
2023/04/30 02:06:44;;;;;;;;;;;;;;;6.40;49.60;100606.75;10641644;27;19923;-72
2023/04/30 02:11:45;;;;;;;;;;;;;;;6.52;50.03;100605.56;10675747;27;19923;-72
2023/04/30 02:16:47;;;;;;;;;;;;;;;6.60;49.67;100596.13;10683074;27;19929;-73
2023/04/30 02:21:50;;;;;;;;;;;;;;;6.61;49.89;100582.22;10697802;27;19923;-73
2023/04/30 02:26:52;;;;;;;;;;;;;;;6.55;49.86;100579.69;10637111;27;20388;-71
2023/04/30 02:31:56;;;;;;;;;;;;;;;6.55;51.32;100555.16;10673997;27;19968;-73
2023/04/30 02:36:59;;;;;;;;;;;;;;;6.64;50.47;100550.91;10628175;27;19923;-74
2023/04/30 02:42:01;;;;;;;;;;;;;;;6.67;50.96;100547.66;10669487;27;19935;-71
2023/04/30 02:47:03;;;;;;;;;;;;;;;6.72;51.68;100550.41;10639658;27;19924;-71
2023/04/30 02:52:08;;;;;;;;;;;;;;;6.81;51.88;100548.88;10653509;27;19923;-72
2023/04/30 02:57:10;;;;;;;;;;;;;;;6.86;50.89;100554.38;10681940;27;19922;-72
2023/04/30 03:02:12;;;;;;;;;;;;;;;6.85;51.92;100527.38;10641690;27;19930;-72
2023/04/30 03:07:16;;;;;;;;;;;;;;;6.78;51.71;100524.84;10676513;27;19934;-72
2023/04/30 03:12:18;;;;;;;;;;;;;;;6.78;51.59;100526.75;10660636;27;19923;-72
2023/04/30 03:17:20;;;;;;;;;;;;;;;7.02;51.98;100511.69;10657365;27;19923;-72
2023/04/30 03:22:25;;;;;;;;;;;;;;;7.20;50.98;100500.38;10675142;27;19942;-71
2023/04/30 03:27:27;;;;;;;;;;;;;;;7.17;51.32;100502.78;10698338;27;19965;-73
2023/04/30 03:32:29;;;;;;;;;;;;;;;7.26;51.28;100498.47;10667495;27;19924;-72
2023/04/30 03:37:32;;;;;;;;;;;;;;;7.13;52.13;100482.59;10680567;27;20444;-73
2023/04/30 03:42:34;;;;;;;;;;;;;;;7.12;51.98;100475.47;10665018;27;19923;-72
2023/04/30 03:47:36;;;;;;;;;;;;;;;7.02;51.56;100469.94;10664881;27;19946;-72
2023/04/30 03:52:38;;;;;;;;;;;;;;;7.01;52.16;100454.66;10621116;27;19977;-72
2023/04/30 03:57:40;;;;;;;;;;;;;;;7.02;52.38;100454.41;10678840;27;19923;-73
2023/04/30 04:02:43;;;;;;;;;;;;;;;7.14;51.57;100435.94;10678933;27;19923;-72
2023/04/30 04:07:46;;;;;;;;;;;;;;;7.18;51.47;100417.13;10678046;27;20328;-73
2023/04/30 04:12:50;;;;;;;;;;;;;;;7.22;51.13;100415.50;10700153;27;19934;-72
2023/04/30 04:17:52;;;;;;;;;;;;;;;7.34;50.64;100402.47;10677539;27;19927;-73
2023/04/30 04:22:54;;;;;;;;;;;;;;;7.40;50.97;100401.41;10676165;27;19923;-72
2023/04/30 04:28:00;;;;;;;;;;;;;;;7.47;50.90;100398.44;10694991;27;20296;-73
2023/04/30 04:33:04;;;;;;;;;;;;;;;7.51;50.31;100388.63;10691270;27;19923;-72
2023/04/30 04:38:06;;;;;;;;;;;;;;;7.59;49.99;100384.53;10678914;27;19923;-74
2023/04/30 04:43:08;;;;;;;;;;;;;;;7.70;50.03;100411.63;10654941;27;20403;-73
2023/04/30 04:48:10;;;;;;;;;;;;;;;7.84;49.41;100385.47;10656991;27;19923;-73
2023/04/30 04:53:12;;;;;;;;;;;;;;;7.89;49.36;100395.56;10676156;27;20026;-72
2023/04/30 04:58:14;;;;;;;;;;;;;;;7.97;49.31;100403.22;10659366;27;19972;-73
2023/04/30 05:03:20;;;;;;;;;;;;;;;8.25;49.16;100414.78;10642910;27;19923;-72
2023/04/30 05:08:25;;;;;;;;;;;;;;;8.46;48.69;100403.59;10685132;27;19923;-72
2023/04/30 05:13:27;;;;;;;;;;;;;;;8.57;48.20;100385.28;10673462;27;19945;-73
2023/04/30 05:18:29;;;;;;;;;;;;;;;8.45;48.35;100382.81;10702901;27;19923;-73
2023/04/30 05:23:31;;;;;;;;;;;;;;;8.38;49.21;100389.69;10684095;27;19930;-73
2023/04/30 05:28:34;;;;;;;;;;;;;;;8.42;49.50;100382.56;10702611;27;20018;-72
2023/04/30 05:33:37;;;;;;;;;;;;;;;8.51;49.06;100380.94;10665782;27;19923;-72
2023/04/30 05:38:39;;;;;;;;;;;;;;;8.62;48.45;100388.03;10691690;27;19946;-72
2023/04/30 05:43:41;;;;;;;;;;;;;;;8.74;49.09;100377.63;10682360;27;19923;-71
2023/04/30 05:48:43;;;;;;;;;;;;;;;8.96;48.41;100373.75;10701381;27;19927;-74
2023/04/30 05:53:45;;;;;;;;;;;;;;;9.13;47.67;100370.69;10696842;27;19923;-72
2023/04/30 05:58:46;;;;;;;;;;;;;;;9.23;47.07;100374.25;10682595;27;19968;-72
2023/04/30 06:03:49;;;;;;;;;;;;;;;9.34;46.38;100375.00;10661828;27;19923;-72
2023/04/30 06:08:51;;;;;;;;;;;;;;;9.26;47.32;100354.53;10705033;27;19932;-72
2023/04/30 06:13:53;;;;;;;;;;;;;;;9.83;47.29;100364.09;10639217;27;20041;-74
2023/04/30 06:18:55;;;;;;;;;;;;;;;10.43;44.89;100369.50;10699320;27;19926;-73
2023/04/30 06:23:57;;;;;;;;;;;;;;;10.65;44.68;100352.56;10703524;27;19923;-73
2023/04/30 06:28:59;;;;;;;;;;;;;;;10.88;44.81;100376.47;10694716;27;19930;-73
2023/04/30 06:34:01;;;;;;;;;;;;;;;11.80;42.97;100370.75;10697945;27;19923;-73
2023/04/30 06:39:04;;;;;;;;;;;;;;;12.79;41.24;100353.25;10694772;27;19923;-73
2023/04/30 06:44:06;;;;;;;;;;;;;;;12.80;40.34;100352.94;10698698;27;19930;-73
2023/04/30 06:49:08;;;;;;;;;;;;;;;12.34;41.43;100340.00;10695961;27;19930;-73
2023/04/30 06:54:11;;;;;;;;;;;;;;;12.16;41.11;100359.28;10678995;27;19923;-73
2023/04/30 06:59:13;;;;;;;;;;;;;;;12.29;41.15;100362.06;10675159;27;19927;-73
2023/04/30 07:04:18;;;;;;;;;;;;;;;12.26;41.06;100353.59;10658700;27;19923;-73
2023/04/30 07:09:21;;;;;;;;;;;;;;;12.08;40.73;100371.75;10701921;27;19922;-73
2023/04/30 07:14:23;;;;;;;;;;;;;;;11.87;42.21;100364.91;10640741;27;20389;-73
2023/04/30 07:19:25;;;;;;;;;;;;;;;11.89;42.78;100366.25;10699322;27;19923;-73
2023/04/30 07:24:28;;;;;;;;;;;;;;;11.78;42.57;100361.97;10664402;27;19927;-73
2023/04/30 07:29:30;;;;;;;;;;;;;;;11.40;43.04;100367.41;10677693;27;19927;-73
2023/04/30 07:34:33;;;;;;;;;;;;;;;11.05;44.97;100368.63;10671429;27;19927;-71
2023/04/30 07:39:36;;;;;;;;;;;;;;;10.81;46.38;100379.56;10672607;27;19966;-73
2023/04/30 07:44:40;;;;;;;;;;;;;;;10.47;48.69;100384.28;10677249;27;19923;-73
2023/04/30 07:49:41;;;;;;;;;;;;;;;10.26;49.76;100391.84;10652274;27;19934;-73
2023/04/30 07:54:43;;;;;;;;;;;;;;;10.25;51.83;100390.19;10689781;27;19934;-73
2023/04/30 07:59:45;;;;;;;;;;;;;;;10.26;51.09;100394.59;10696216;27;19926;-73
2023/04/30 08:04:48;;;;;;;;;;;;;;;10.16;51.69;100406.38;10658680;27;20004;-72
2023/04/30 08:09:50;;;;;;;;;;;;;;;9.85;54.31;100413.16;10646153;27;19930;-72
2023/04/30 08:14:59;;;;;;;;;;;;;;;9.64;54.71;100412.44;10656683;27;19923;-72
2023/04/30 08:20:02;;;;;;;;;;;;;;;9.36;56.64;100414.69;10663415;27;19930;-73
2023/04/30 08:25:04;;;;;;;;;;;;;;;9.16;57.87;100425.72;10645317;27;20527;-73
2023/04/30 08:30:06;;;;;;;;;;;;;;;8.97;58.92;100427.38;10670400;27;20335;-73
2023/04/30 08:35:10;;;;;;;;;;;;;;;8.81;59.90;100421.09;10687724;27;19945;-73
2023/04/30 08:40:12;;;;;;;;;;;;;;;8.77;62.39;100437.25;10653196;27;19923;-71
2023/04/30 08:45:15;;;;;;;;;;;;;;;8.43;64.26;100436.16;10669443;27;19924;-72
2023/04/30 08:50:17;;;;;;;;;;;;;;;8.26;66.78;100455.50;10668373;27;19934;-71
2023/04/30 08:55:19;;;;;;;;;;;;;;;8.22;68.39;100461.78;10644294;27;19931;-71
2023/04/30 09:00:21;;;;;;;;;;;;;;;8.17;70.93;100481.75;10683095;27;19928;-72
2023/04/30 09:05:24;;;;;;;;;;;;;;;7.89;71.96;100488.47;10695257;27;19927;-73
2023/04/30 09:10:27;;;;;;;;;;;;;;;7.59;74.87;100501.97;10679117;27;19930;-72
2023/04/30 09:15:29;;;;;;;;;;;;;;;7.38;77.19;100498.28;10684567;27;19923;-73
2023/04/30 09:20:31;;;;;;;;;;;;;;;7.18;78.48;100494.34;10684213;27;19927;-72
2023/04/30 09:25:39;;;;;;;;;;;;;;;7.08;79.19;100509.81;10696419;27;19923;-72
2023/04/30 09:30:42;;;;;;;;;;;;;;;7.07;80.48;100508.16;10658899;27;19930;-72
2023/04/30 09:35:45;;;;;;;;;;;;;;;7.10;81.18;100510.38;10653804;27;19946;-73
2023/04/30 09:40:47;;;;;;;;;;;;;;;7.17;82.11;100519.16;10663541;27;19923;-72
2023/04/30 09:45:51;;;;;;;;;;;;;;;7.20;82.86;100507.72;10668808;27;20278;-72
2023/04/30 09:50:53;;;;;;;;;;;;;;;7.11;82.89;100514.75;10667533;27;19950;-72
2023/04/30 09:55:56;;;;;;;;;;;;;;;6.91;81.77;100518.94;10690498;27;20520;-72
2023/04/30 10:00:58;;;;;;;;;;;;;;;6.82;82.70;100516.97;10684273;27;20449;-74
2023/04/30 10:06:02;;;;;;;;;;;;;;;6.75;81.97;100522.63;10651341;27;19922;-74
2023/04/30 10:11:05;;;;;;;;;;;;;;;6.66;82.83;100529.66;10665572;27;20269;-74
2023/04/30 10:16:17;;;;;;;;;;;;;;;6.62;82.62;100526.63;10671001;27;19923;-75
2023/04/30 10:21:22;;;;;;;;;;;;;;;6.67;83.16;100525.84;10643190;27;19923;-75
2023/04/30 10:26:24;;;;;;;;;;;;;;;6.68;83.40;100527.47;10647634;27;20308;-74
2023/04/30 10:31:26;;;;;;;;;;;;;;;6.73;83.40;100532.16;10705594;27;20376;-73
2023/04/30 10:36:32;;;;;;;;;;;;;;;6.68;84.07;100543.84;10661774;27;20377;-73
2023/04/30 10:41:34;;;;;;;;;;;;;;;6.62;84.71;100539.44;10658021;27;19936;-74
2023/04/30 10:46:41;;;;;;;;;;;;;;;6.72;85.06;100536.78;10699985;27;19927;-75
2023/04/30 10:51:44;;;;;;;;;;;;;;;6.63;85.02;100547.34;10678224;27;19923;-74
2023/04/30 10:56:46;;;;;;;;;;;;;;;6.63;86.18;100530.16;10656892;27;19927;-75
2023/04/30 11:01:58;;;;;;;;;;;;;;;6.67;86.66;100542.19;10620032;27;19923;-75
2023/04/30 11:07:02;;;;;;;;;;;;;;;6.63;87.36;100543.78;10642368;27;19923;-75
2023/04/30 11:12:14;;;;;;;;;;;;;;;6.68;87.55;100541.09;10621295;27;20413;-75
2023/04/30 11:17:23;;;;;;;;;;;;;;;6.72;88.34;100542.22;10620557;27;19930;-75
2023/04/30 11:22:25;;;;;;;;;;;;;;;6.68;88.15;100543.84;10640164;27;20379;-74
2023/04/30 11:27:34;;;;;;;;;;;;;;;6.55;88.32;100550.50;10637480;27;19930;-73
2023/04/30 11:32:36;;;;;;;;;;;;;;;6.49;88.00;100554.28;10655265;27;19930;-73
2023/04/30 11:37:39;;;;;;;;;;;;;;;6.45;86.99;100560.50;10619670;27;19946;-75
2023/04/30 11:42:45;;;;;;;;;;;;;;;6.46;87.37;100553.97;10655652;27;19923;-74
2023/04/30 11:47:51;;;;;;;;;;;;;;;6.52;86.50;100550.22;10671479;27;19923;-74
2023/04/30 11:52:53;;;;;;;;;;;;;;;6.53;86.32;100560.84;10697195;27;19923;-74
2023/04/30 11:57:55;;;;;;;;;;;;;;;6.68;86.07;100552.03;10678664;27;19927;-74
2023/04/30 12:03:02;;;;;;;;;;;;;;;6.78;86.15;100543.94;10695650;27;19930;-75
2023/04/30 12:08:08;;;;;;;;;;;;;;;6.87;85.97;100544.28;10691805;27;19923;-74
2023/04/30 12:13:13;;;;;;;;;;;;;;;6.93;84.66;100541.34;10696471;27;19923;-75
2023/04/30 12:18:15;;;;;;;;;;;;;;;6.97;84.85;100551.75;10677628;27;19927;-74
2023/04/30 12:23:17;;;;;;;;;;;;;;;7.02;83.48;100533.50;10696311;27;19929;-74
2023/04/30 12:28:22;;;;;;;;;;;;;;;7.25;82.85;100540.50;10677692;27;19930;-74
2023/04/30 12:33:24;;;;;;;;;;;;;;;7.38;82.53;100531.88;10677336;27;19930;-74
2023/04/30 12:38:26;;;;;;;;;;;;;;;7.64;81.59;100535.59;10657342;27;19923;-74
2023/04/30 12:43:28;;;;;;;;;;;;;;;7.70;81.11;100544.63;10653203;27;19923;-74
2023/04/30 12:48:30;;;;;;;;;;;;;;;7.79;80.70;100532.09;10635125;28;19927;-74
2023/04/30 12:53:32;;;;;;;;;;;;;;;7.72;79.36;100532.34;10658210;27;19966;-73
2023/04/30 12:58:34;;;;;;;;;;;;;;;8.01;78.85;100526.50;10675514;27;20320;-74
2023/04/30 13:03:36;;;;;;;;;;;;;;;8.20;77.57;100537.78;10688708;27;19978;-73
2023/04/30 13:08:38;;;;;;;;;;;;;;;8.51;76.71;100522.31;10639179;27;19923;-73
2023/04/30 13:13:43;;;;;;;;;;;;;;;8.75;76.68;100524.25;10639693;27;19923;-74
2023/04/30 13:18:45;;;;;;;;;;;;;;;8.80;73.97;100525.34;10637501;27;19929;-75
2023/04/30 13:23:48;;;;;;;;;;;;;;;8.87;73.76;100537.69;10658662;27;19923;-71
2023/04/30 13:28:50;;;;;;;;;;;;;;;9.30;73.01;100527.28;10659642;27;19924;-73
2023/04/30 13:33:53;;;;;;;;;;;;;;;10.35;71.18;100540.16;10655194;27;19923;-74
2023/04/30 13:38:56;;;;;;;;;;;;;;;10.73;67.79;100530.31;10624799;27;20029;-74
2023/04/30 13:43:59;;;;;;;;;;;;;;;10.03;66.71;100540.53;10654581;27;19922;-72
2023/04/30 13:49:01;;;;;;;;;;;;;;;9.16;70.06;100559.84;10680861;27;19923;-74
2023/04/30 13:54:03;;;;;;;;;;;;;;;8.68;71.03;100570.22;10657918;27;20421;-72
2023/04/30 13:59:05;;;;;;;;;;;;;;;8.47;71.22;100571.22;10660237;27;19924;-74
2023/04/30 14:04:07;;;;;;;;;;;;;;;8.32;70.33;100579.34;10658603;27;19967;-74
2023/04/30 14:09:09;;;;;;;;;;;;;;;8.28;70.32;100580.97;10635880;27;20006;-73
2023/04/30 14:14:11;;;;;;;;;;;;;;;8.43;70.05;100597.47;10683392;27;19930;-73
2023/04/30 14:19:13;;;;;;;;;;;;;;;8.42;69.13;100584.91;10669090;27;19930;-73
2023/04/30 14:24:16;;;;;;;;;;;;;;;8.18;69.05;100586.41;10680112;27;19926;-73
2023/04/30 14:29:19;;;;;;;;;;;;;;;8.18;69.16;100575.50;10677536;27;19927;-73
2023/04/30 14:34:21;;;;;;;;;;;;;;;8.25;68.50;100582.34;10680263;27;19934;-73
2023/04/30 14:39:23;;;;;;;;;;;;;;;8.08;68.99;100579.81;10656199;27;19923;-73
2023/04/30 14:44:25;;;;;;;;;;;;;;;8.06;70.38;100584.72;10730639;27;19927;-76
2023/04/30 14:49:27;;;;;;;;;;;;;;;8.19;69.40;100590.78;10664992;27;19923;-73
2023/04/30 14:54:29;;;;;;;;;;;;;;;8.18;69.92;100592.72;10655907;27;19967;-74
2023/04/30 14:59:33;;;;;;;;;;;;;;;8.04;69.72;100586.06;10663561;27;20342;-73
2023/04/30 15:04:35;;;;;;;;;;;;;;;7.98;70.05;100582.47;10678880;27;19927;-75
2023/04/30 15:09:38;;;;;;;;;;;;;;;7.91;70.56;100592.81;10665662;27;19930;-75
2023/04/30 15:14:40;;;;;;;;;;;;;;;7.98;70.47;100587.13;10678011;27;19934;-75
2023/04/30 15:19:47;;;;;;;;;;;;;;;7.94;70.67;100586.84;10663643;27;19930;-75
2023/04/30 15:24:49;;;;;;;;;;;;;;;7.94;70.88;100588.75;10686246;27;19942;-75
2023/04/30 15:29:52;;;;;;;;;;;;;;;7.90;71.17;100588.47;10692703;27;20000;-75
2023/04/30 15:34:54;;;;;;;;;;;;;;;7.92;71.13;100591.75;10698142;27;19930;-75
2023/04/30 15:39:58;;;;;;;;;;;;;;;7.87;72.10;100589.00;10681077;27;20211;-75
2023/04/30 15:45:00;;;;;;;;;;;;;;;7.86;72.26;100592.81;10688033;27;19929;-76
2023/04/30 15:50:02;;;;;;;;;;;;;;;7.94;71.04;100589.56;10695369;27;20348;-76
2023/04/30 15:55:05;;;;;;;;;;;;;;;8.07;70.83;100582.81;10668656;27;19923;-76
2023/04/30 16:00:07;;;;;;;;;;;;;;;7.89;69.93;100584.06;10639864;27;19931;-75
2023/04/30 16:05:15;;;;;;;;;;;;;;;7.71;70.96;100601.72;10637911;27;20348;-75
2023/04/30 16:10:18;;;;;;;;;;;;;;;7.48;71.09;100597.47;10656167;27;19923;-75
2023/04/30 16:15:20;;;;;;;;;;;;;;;7.29;71.37;100598.13;10651306;27;19923;-75
2023/04/30 16:20:22;;;;;;;;;;;;;;;6.99;69.81;100604.16;10646206;27;19929;-76
2023/04/30 16:25:25;;;;;;;;;;;;;;;7.01;69.49;100604.72;10665155;27;19923;-75
2023/04/30 16:30:27;;;;;;;;;;;;;;;6.91;69.57;100614.41;10689242;27;19923;-75
2023/04/30 16:35:30;;;;;;;;;;;;;;;6.86;69.53;100611.66;10661316;27;19923;-76
2023/04/30 16:40:32;;;;;;;;;;;;;;;6.86;69.05;100622.56;10680503;27;19930;-75
2023/04/30 16:45:34;;;;;;;;;;;;;;;6.80;69.41;100618.16;10637532;27;19927;-75
2023/04/30 16:50:36;;;;;;;;;;;;;;;6.71;68.29;100633.31;10690027;27;19930;-76
2023/04/30 16:55:38;;;;;;;;;;;;;;;6.76;67.71;100622.44;10675882;27;19930;-76
2023/04/30 17:00:40;;;;;;;;;;;;;;;6.62;66.18;100615.75;10686737;27;19919;-78
2023/04/30 17:05:42;;;;;;;;;;;;;;;6.56;66.70;100636.66;10700210;27;20014;-77
2023/04/30 17:10:44;;;;;;;;;;;;;;;6.43;66.61;100647.97;10703989;27;19923;-77
2023/04/30 17:15:46;;;;;;;;;;;;;;;6.35;67.32;100635.59;10690941;27;19970;-75
2023/04/30 17:20:49;;;;;;;;;;;;;;;6.28;67.58;100629.53;10696757;27;20282;-75
2023/04/30 17:25:51;;;;;;;;;;;;;;;6.20;68.08;100635.41;10688090;27;19923;-76
2023/04/30 17:30:53;;;;;;;;;;;;;;;6.30;68.44;100635.56;10673490;27;19923;-75
2023/04/30 17:35:55;;;;;;;;;;;;;;;6.34;68.07;100635.88;10704506;27;20301;-75
2023/04/30 17:40:57;;;;;;;;;;;;;;;6.18;68.11;100636.75;10677746;27;19968;-74
2023/04/30 17:45:59;;;;;;;;;;;;;;;6.17;68.20;100641.38;10687037;27;19968;-72
2023/04/30 17:51:02;;;;;;;;;;;;;;;6.06;69.24;100636.84;10688705;27;19923;-71
2023/04/30 17:56:04;;;;;;;;;;;;;;;5.97;69.59;100643.81;10686353;27;19923;-71
2023/04/30 18:01:12;;;;;;;;;;;;;;;5.81;70.14;100631.00;10641536;27;19940;-73
2023/04/30 18:06:24;;;;;;;;;;;;;;;5.81;70.32;100629.13;10693933;27;19923;-72
2023/04/30 18:11:26;;;;;;;;;;;;;;;5.80;71.25;100627.47;10679427;27;19927;-72
2023/04/30 18:16:30;;;;;;;;;;;;;;;5.69;71.58;100626.47;10655837;27;19923;-72
2023/04/30 18:21:33;;;;;;;;;;;;;;;5.64;72.19;100642.75;10692235;27;20393;-72
2023/04/30 18:26:36;;;;;;;;;;;;;;;5.65;72.01;100646.28;10694762;27;20399;-73
2023/04/30 18:31:38;;;;;;;;;;;;;;;5.73;71.74;100638.53;10699774;27;19927;-73
2023/04/30 18:36:43;;;;;;;;;;;;;;;5.62;72.14;100639.44;10658794;27;19929;-71
2023/04/30 18:41:45;;;;;;;;;;;;;;;5.78;71.29;100647.84;10642483;27;20373;-72
2023/04/30 18:46:47;;;;;;;;;;;;;;;5.71;71.41;100653.44;10648031;27;19931;-72
2023/04/30 18:51:49;;;;;;;;;;;;;;;5.82;71.53;100663.44;10657230;27;20342;-72
2023/04/30 18:56:52;;;;;;;;;;;;;;;5.70;71.12;100663.53;10680005;27;19923;-71
2023/04/30 19:01:54;;;;;;;;;;;;;;;5.45;71.30;100666.66;10669845;27;20381;-72
2023/04/30 19:06:56;;;;;;;;;;;;;;;5.40;71.98;100658.44;10670635;27;19927;-72
2023/04/30 19:11:58;;;;;;;;;;;;;;;5.42;72.17;100653.56;10685086;27;19930;-72
2023/04/30 19:17:00;;;;;;;;;;;;;;;5.48;72.33;100645.47;10692202;27;19930;-73
2023/04/30 19:22:02;;;;;;;;;;;;;;;5.48;71.94;100653.63;10676881;27;20410;-73
2023/04/30 19:27:05;;;;;;;;;;;;;;;5.58;72.31;100649.19;10707141;27;19923;-71
2023/04/30 19:32:08;;;;;;;;;;;;;;;5.69;71.54;100650.16;10693561;27;19934;-71
2023/04/30 19:37:13;;;;;;;;;;;;;;;5.56;72.06;100645.91;10674053;27;19923;-72
2023/04/30 19:42:15;;;;;;;;;;;;;;;5.38;72.34;100655.13;10695654;27;19946;-72
2023/04/30 19:47:17;;;;;;;;;;;;;;;5.26;72.79;100653.53;10693685;27;19926;-71
2023/04/30 19:52:19;;;;;;;;;;;;;;;5.20;72.93;100649.06;10677308;27;20297;-72
2023/04/30 19:57:21;;;;;;;;;;;;;;;5.19;72.78;100647.41;10671303;27;19930;-72
2023/04/30 20:02:23;;;;;;;;;;;;;;;5.06;72.79;100641.25;10673440;27;19929;-73
2023/04/30 20:07:25;;;;;;;;;;;;;;;5.21;73.57;100635.25;10675237;27;19923;-72
2023/04/30 20:12:27;;;;;;;;;;;;;;;5.26;72.81;100645.38;10669518;27;20317;-72
2023/04/30 20:17:32;;;;;;;;;;;;;;;5.24;73.72;100642.91;10681115;27;19923;-72
2023/04/30 20:22:35;;;;;;;;;;;;;;;5.33;74.04;100656.91;10681332;27;19923;-71
2023/04/30 20:28:02;;;;;;;;;;;;;;;5.33;73.73;100640.59;10689108;27;20331;-74
2023/04/30 20:33:07;;;;;;;;;;;;;;;5.31;73.39;100642.75;10695986;27;20021;-73
2023/04/30 20:38:09;;;;;;;;;;;;;;;5.25;73.67;100652.72;10662116;27;19923;-73
2023/04/30 20:43:11;;;;;;;;;;;;;;;5.19;73.81;100656.41;10707005;27;19923;-73
2023/04/30 20:48:14;;;;;;;;;;;;;;;5.18;74.38;100653.94;10704394;27;19930;-71
2023/04/30 20:53:16;;;;;;;;;;;;;;;4.90;75.53;100649.34;10692854;27;20301;-71
2023/04/30 20:58:18;;;;;;;;;;;;;;;4.92;75.70;100655.38;10703431;27;19929;-71
2023/04/30 21:03:20;;;;;;;;;;;;;;;4.97;75.95;100647.31;10680967;27;19923;-71
2023/04/30 21:08:22;;;;;;;;;;;;;;;4.87;75.72;100645.25;10707039;27;19930;-72
2023/04/30 21:13:24;;;;;;;;;;;;;;;4.68;76.49;100643.75;10704420;27;19922;-72
2023/04/30 21:18:26;;;;;;;;;;;;;;;4.59;76.70;100639.78;10694323;27;19930;-72
2023/04/30 21:23:28;;;;;;;;;;;;;;;4.57;76.56;100639.19;10689962;27;19923;-72
2023/04/30 21:28:31;;;;;;;;;;;;;;;4.46;76.61;100641.69;10686053;27;19923;-72
2023/04/30 21:33:34;;;;;;;;;;;;;;;4.35;77.24;100639.88;10691967;27;19930;-72
2023/04/30 21:38:36;;;;;;;;;;;;;;;4.43;76.60;100638.66;10689082;27;19923;-72
2023/04/30 21:44:04;;;;;;;;;;;;;;;4.38;77.18;100636.66;10680626;27;19927;-72
2023/04/30 21:49:06;;;;;;;;;;;;;;;4.40;76.84;100634.53;10659972;27;19924;-72
2023/04/30 21:54:08;;;;;;;;;;;;;;;4.34;77.49;100630.06;10670221;27;19930;-72
2023/04/30 21:59:36;;;;;;;;;;;;;;;4.37;77.30;100626.03;10667340;27;20423;-72
2023/04/30 22:04:40;;;;;;;;;;;;;;;4.28;77.11;100627.47;10666950;27;19927;-72
2023/04/30 22:09:43;;;;;;;;;;;;;;;4.25;76.90;100631.50;10654637;27;19920;-72
2023/04/30 22:14:45;;;;;;;;;;;;;;;4.29;76.66;100626.41;10657271;27;19924;-72
2023/04/30 22:19:47;;;;;;;;;;;;;;;4.33;77.83;100616.69;10689478;27;19927;-71
2023/04/30 22:24:49;;;;;;;;;;;;;;;4.14;78.35;100618.75;10670619;27;20392;-72
2023/04/30 22:29:51;;;;;;;;;;;;;;;3.97;79.14;100617.84;10692953;27;20318;-72
2023/04/30 22:34:53;;;;;;;;;;;;;;;3.81;79.89;100622.09;10684759;27;19973;-72
2023/04/30 22:39:55;;;;;;;;;;;;;;;4.06;79.76;100628.09;10683377;27;19930;-72
2023/04/30 22:44:57;;;;;;;;;;;;;;;4.09;79.38;100633.06;10700009;27;19930;-72
2023/04/30 22:49:59;;;;;;;;;;;;;;;4.26;78.91;100618.75;10656759;27;20316;-72
2023/04/30 22:55:04;;;;;;;;;;;;;;;4.12;78.69;100618.16;10656573;27;19930;-72
2023/04/30 23:00:06;;;;;;;;;;;;;;;4.21;79.05;100611.31;10682689;27;19930;-72
2023/04/30 23:05:11;;;;;;;;;;;;;;;4.09;79.23;100618.66;10691473;27;19927;-72
2023/04/30 23:10:16;;;;;;;;;;;;;;;4.13;79.59;100611.66;10640325;27;19971;-72
2023/04/30 23:15:18;;;;;;;;;;;;;;;4.09;79.56;100611.34;10640057;27;19935;-72
2023/04/30 23:20:21;;;;;;;;;;;;;;;3.99;79.54;100597.53;10639745;27;20412;-72
2023/04/30 23:25:25;;;;;;;;;;;;;;;3.81;79.98;100600.38;10622509;27;20416;-72
2023/04/30 23:30:27;;;;;;;;;;;;;;;3.96;79.89;100597.19;10688147;27;19929;-72
2023/04/30 23:35:29;;;;;;;;;;;;;;;3.98;79.70;100598.59;10698507;27;19929;-72
2023/04/30 23:40:31;;;;;;;;;;;;;;;4.02;79.70;100596.25;10656411;27;19923;-73
2023/04/30 23:45:33;;;;;;;;;;;;;;;4.08;79.52;100595.28;10656771;27;19923;-72
2023/04/30 23:50:36;;;;;;;;;;;;;;;3.97;79.69;100582.53;10651124;27;20346;-72
2023/04/30 23:55:41;;;;;;;;;;;;;;;4.13;79.67;100579.91;10671705;27;20336;-72
